sensor_id;sensor_type;location;lat;lon;timestamp;pressure;altitude;pressure_sealevel;temperature;humidity
32330;BME280;18807;52.434;13.238;2023-02-15T00:02:46;102812.31;;;3.01;100.00
32330;BME280;18807;52.434;13.238;2023-02-15T00:10:22;102819.75;;;2.95;100.00
32330;BME280;18807;52.434;13.238;2023-02-15T00:17:56;102808.47;;;2.86;100.00
32330;BME280;18807;52.434;13.238;2023-02-15T00:25:31;102801.41;;;2.75;100.00
32330;BME280;18807;52.434;13.238;2023-02-15T00:33:05;102804.84;;;2.62;100.00
32330;BME280;18807;52.434;13.238;2023-02-15T00:40:41;102802.53;;;2.55;100.00
32330;BME280;18807;52.434;13.238;2023-02-15T00:48:14;102798.34;;;2.47;100.00
32330;BME280;18807;52.434;13.238;2023-02-15T00:55:50;102783.63;;;2.39;100.00
32330;BME280;18807;52.434;13.238;2023-02-15T01:03:23;102785.03;;;2.24;100.00
32330;BME280;18807;52.434;13.238;2023-02-15T01:11:03;102787.19;;;2.18;100.00
32330;BME280;18807;52.434;13.238;2023-02-15T01:18:37;102780.38;;;2.10;100.00
32330;BME280;18807;52.434;13.238;2023-02-15T01:26:12;102772.53;;;2.00;100.00
32330;BME280;18807;52.434;13.238;2023-02-15T01:33:47;102749.22;;;1.94;100.00
32330;BME280;18807;52.434;13.238;2023-02-15T01:41:22;102747.94;;;1.89;100.00
32330;BME280;18807;52.434;13.238;2023-02-15T01:49:00;102749.59;;;1.77;100.00
32330;BME280;18807;52.434;13.238;2023-02-15T01:56:38;102719.97;;;1.70;100.00
32330;BME280;18807;52.434;13.238;2023-02-15T02:04:16;102715.16;;;1.64;100.00
32330;BME280;18807;52.434;13.238;2023-02-15T02:11:53;102712.78;;;1.57;100.00
32330;BME280;18807;52.434;13.238;2023-02-15T02:20:03;102710.69;;;1.53;100.00
32330;BME280;18807;52.434;13.238;2023-02-15T02:27:43;102699.53;;;1.46;100.00
32330;BME280;18807;52.434;13.238;2023-02-15T02:35:27;102694.59;;;1.39;100.00
32330;BME280;18807;52.434;13.238;2023-02-15T02:43:09;102679.84;;;1.31;100.00
32330;BME280;18807;52.434;13.238;2023-02-15T02:50:46;102673.44;;;1.27;100.00
32330;BME280;18807;52.434;13.238;2023-02-15T02:58:23;102673.97;;;1.23;100.00
32330;BME280;18807;52.434;13.238;2023-02-15T03:06:02;102669.81;;;1.15;100.00
32330;BME280;18807;52.434;13.238;2023-02-15T03:13:39;102659.78;;;1.11;100.00
32330;BME280;18807;52.434;13.238;2023-02-15T03:21:14;102657.72;;;1.07;100.00
32330;BME280;18807;52.434;13.238;2023-02-15T03:28:56;102651.28;;;1.04;100.00
32330;BME280;18807;52.434;13.238;2023-02-15T03:36:38;102647.34;;;0.99;100.00
32330;BME280;18807;52.434;13.238;2023-02-15T03:44:16;102652.22;;;0.94;100.00
32330;BME280;18807;52.434;13.238;2023-02-15T03:51:55;102641.19;;;0.88;100.00
32330;BME280;18807;52.434;13.238;2023-02-15T03:59:31;102639.13;;;0.84;100.00
32330;BME280;18807;52.434;13.238;2023-02-15T04:07:23;102644.25;;;0.83;100.00
32330;BME280;18807;52.434;13.238;2023-02-15T04:14:57;102631.88;;;0.82;100.00
32330;BME280;18807;52.434;13.238;2023-02-15T04:22:50;102618.72;;;0.82;100.00
32330;BME280;18807;52.434;13.238;2023-02-15T04:30:41;102623.22;;;0.83;100.00
32330;BME280;18807;52.434;13.238;2023-02-15T04:38:17;102621.72;;;0.86;100.00
32330;BME280;18807;52.434;13.238;2023-02-15T04:45:51;102603.31;;;0.86;100.00
32330;BME280;18807;52.434;13.238;2023-02-15T04:53:26;102587.28;;;0.83;100.00
32330;BME280;18807;52.434;13.238;2023-02-15T05:01:00;102566.66;;;0.78;100.00
32330;BME280;18807;52.434;13.238;2023-02-15T05:08:35;102557.91;;;0.67;100.00
32330;BME280;18807;52.434;13.238;2023-02-15T05:16:09;102561.13;;;0.53;100.00
32330;BME280;18807;52.434;13.238;2023-02-15T05:23:45;102571.88;;;0.46;100.00
32330;BME280;18807;52.434;13.238;2023-02-15T05:31:19;102565.59;;;0.44;100.00
32330;BME280;18807;52.434;13.238;2023-02-15T05:38:55;102546.78;;;0.50;100.00
32330;BME280;18807;52.434;13.238;2023-02-15T05:46:28;102545.50;;;0.35;100.00
32330;BME280;18807;52.434;13.238;2023-02-15T05:54:04;102554.34;;;0.25;100.00
32330;BME280;18807;52.434;13.238;2023-02-15T06:01:38;102551.56;;;0.14;100.00
32330;BME280;18807;52.434;13.238;2023-02-15T06:09:14;102545.66;;;0.26;100.00
32330;BME280;18807;52.434;13.238;2023-02-15T06:16:50;102551.19;;;-0.01;100.00
32330;BME280;18807;52.434;13.238;2023-02-15T06:24:25;102549.25;;;-0.04;100.00
32330;BME280;18807;52.434;13.238;2023-02-15T06:32:00;102546.88;;;-0.21;100.00
32330;BME280;18807;52.434;13.238;2023-02-15T06:39:35;102537.97;;;-0.23;100.00
32330;BME280;18807;52.434;13.238;2023-02-15T06:47:09;102537.94;;;-0.13;100.00
32330;BME280;18807;52.434;13.238;2023-02-15T06:54:44;102543.84;;;-0.05;100.00
32330;BME280;18807;52.434;13.238;2023-02-15T07:02:18;102543.59;;;0.02;100.00
32330;BME280;18807;52.434;13.238;2023-02-15T07:09:53;102538.31;;;0.02;100.00
32330;BME280;18807;52.434;13.238;2023-02-15T07:17:27;102524.28;;;-0.09;100.00
32330;BME280;18807;52.434;13.238;2023-02-15T07:25:11;102517.47;;;-0.17;100.00
32330;BME280;18807;52.434;13.238;2023-02-15T07:32:45;102522.59;;;-0.08;100.00
32330;BME280;18807;52.434;13.238;2023-02-15T07:40:38;102514.19;;;-0.14;100.00
32330;BME280;18807;52.434;13.238;2023-02-15T07:48:12;102510.50;;;-0.16;100.00
32330;BME280;18807;52.434;13.238;2023-02-15T07:55:48;102501.44;;;-0.10;100.00
32330;BME280;18807;52.434;13.238;2023-02-15T08:03:23;102492.91;;;-0.07;100.00
32330;BME280;18807;52.434;13.238;2023-02-15T08:11:03;102486.34;;;-0.02;100.00
32330;BME280;18807;52.434;13.238;2023-02-15T08:18:54;102471.66;;;0.00;100.00
32330;BME280;18807;52.434;13.238;2023-02-15T08:26:31;102469.63;;;0.08;100.00
32330;BME280;18807;52.434;13.238;2023-02-15T08:34:05;102463.88;;;0.12;100.00
32330;BME280;18807;52.434;13.238;2023-02-15T08:41:42;102460.84;;;0.07;100.00
32330;BME280;18807;52.434;13.238;2023-02-15T08:49:18;102449.25;;;0.15;100.00
32330;BME280;18807;52.434;13.238;2023-02-15T08:56:54;102457.13;;;0.15;100.00
32330;BME280;18807;52.434;13.238;2023-02-15T09:04:28;102440.31;;;0.23;100.00
32330;BME280;18807;52.434;13.238;2023-02-15T09:12:03;102430.00;;;0.36;100.00
32330;BME280;18807;52.434;13.238;2023-02-15T09:19:37;102423.81;;;0.46;100.00
32330;BME280;18807;52.434;13.238;2023-02-15T09:27:12;102424.44;;;0.53;100.00
32330;BME280;18807;52.434;13.238;2023-02-15T09:34:46;102424.13;;;0.60;100.00
32330;BME280;18807;52.434;13.238;2023-02-15T09:50:32;102418.22;;;0.84;100.00
32330;BME280;18807;52.434;13.238;2023-02-15T09:58:14;102419.91;;;1.05;100.00
32330;BME280;18807;52.434;13.238;2023-02-15T10:06:05;102413.97;;;1.08;100.00
32330;BME280;18807;52.434;13.238;2023-02-15T10:13:52;102421.91;;;1.19;100.00
32330;BME280;18807;52.434;13.238;2023-02-15T10:21:38;102415.56;;;1.39;100.00
32330;BME280;18807;52.434;13.238;2023-02-15T10:29:24;102401.25;;;1.47;100.00
32330;BME280;18807;52.434;13.238;2023-02-15T10:37:18;102387.00;;;1.66;100.00
32330;BME280;18807;52.434;13.238;2023-02-15T10:45:06;102375.78;;;1.80;100.00
32330;BME280;18807;52.434;13.238;2023-02-15T10:52:54;102372.47;;;1.94;100.00
32330;BME280;18807;52.434;13.238;2023-02-15T11:00:37;102358.59;;;2.08;100.00
32330;BME280;18807;52.434;13.238;2023-02-15T11:08:16;102361.53;;;2.48;100.00
32330;BME280;18807;52.434;13.238;2023-02-15T11:15:54;102349.28;;;2.73;100.00
32330;BME280;18807;52.434;13.238;2023-02-15T11:23:32;102328.22;;;3.10;100.00
32330;BME280;18807;52.434;13.238;2023-02-15T11:31:15;102317.75;;;3.36;100.00
32330;BME280;18807;52.434;13.238;2023-02-15T11:38:54;102306.09;;;3.72;100.00
32330;BME280;18807;52.434;13.238;2023-02-15T11:46:32;102295.50;;;3.98;100.00
32330;BME280;18807;52.434;13.238;2023-02-15T11:54:08;102291.69;;;4.34;100.00
32330;BME280;18807;52.434;13.238;2023-02-15T12:01:45;102286.00;;;4.68;100.00
32330;BME280;18807;52.434;13.238;2023-02-15T12:09:27;102278.47;;;5.03;100.00
32330;BME280;18807;52.434;13.238;2023-02-15T12:17:13;102273.41;;;5.35;100.00
32330;BME280;18807;52.434;13.238;2023-02-15T12:24:47;102264.50;;;5.78;100.00
32330;BME280;18807;52.434;13.238;2023-02-15T12:32:27;102246.75;;;6.23;100.00
32330;BME280;18807;52.434;13.238;2023-02-15T12:40:19;102251.56;;;6.30;100.00
32330;BME280;18807;52.434;13.238;2023-02-15T12:48:13;102221.84;;;6.51;100.00
32330;BME280;18807;52.434;13.238;2023-02-15T12:55:53;102215.50;;;6.81;100.00
32330;BME280;18807;52.434;13.238;2023-02-15T13:03:29;102215.78;;;7.19;100.00
32330;BME280;18807;52.434;13.238;2023-02-15T13:11:06;102204.81;;;7.13;100.00
32330;BME280;18807;52.434;13.238;2023-02-15T13:18:44;102184.66;;;7.52;100.00
32330;BME280;18807;52.434;13.238;2023-02-15T13:26:21;102178.75;;;7.57;100.00
32330;BME280;18807;52.434;13.238;2023-02-15T13:34:00;102172.25;;;7.87;100.00
32330;BME280;18807;52.434;13.238;2023-02-15T13:41:47;102149.94;;;8.03;100.00
32330;BME280;18807;52.434;13.238;2023-02-15T13:49:36;102151.22;;;8.11;100.00
32330;BME280;18807;52.434;13.238;2023-02-15T13:57:35;102150.66;;;8.18;100.00
32330;BME280;18807;52.434;13.238;2023-02-15T14:05:25;102160.72;;;8.24;100.00
32330;BME280;18807;52.434;13.238;2023-02-15T14:13:27;102157.31;;;8.45;100.00
32330;BME280;18807;52.434;13.238;2023-02-15T14:21:10;102144.34;;;8.53;100.00
32330;BME280;18807;52.434;13.238;2023-02-15T14:28:53;102134.16;;;8.63;100.00
32330;BME280;18807;52.434;13.238;2023-02-15T14:36:34;102135.50;;;8.54;100.00
32330;BME280;18807;52.434;13.238;2023-02-15T14:44:12;102132.25;;;8.61;100.00
32330;BME280;18807;52.434;13.238;2023-02-15T14:51:56;102113.28;;;8.72;99.99
32330;BME280;18807;52.434;13.238;2023-02-15T14:59:37;102106.31;;;8.96;97.16
32330;BME280;18807;52.434;13.238;2023-02-15T15:07:19;102118.69;;;9.15;92.52
32330;BME280;18807;52.434;13.238;2023-02-15T15:14:54;102102.94;;;9.21;88.61
32330;BME280;18807;52.434;13.238;2023-02-15T15:22:30;102108.97;;;9.17;88.33
32330;BME280;18807;52.434;13.238;2023-02-15T15:38:27;102132.50;;;8.86;92.76
32330;BME280;18807;52.434;13.238;2023-02-15T15:46:24;102124.25;;;8.80;94.31
32330;BME280;18807;52.434;13.238;2023-02-15T15:54:04;102122.59;;;8.63;96.40
32330;BME280;18807;52.434;13.238;2023-02-15T16:01:41;102110.19;;;8.44;98.64
32330;BME280;18807;52.434;13.238;2023-02-15T16:09:19;102109.75;;;8.16;100.00
32330;BME280;18807;52.434;13.238;2023-02-15T16:16:56;102099.50;;;7.87;100.00
32330;BME280;18807;52.434;13.238;2023-02-15T16:24:48;102089.41;;;7.61;100.00
32330;BME280;18807;52.434;13.238;2023-02-15T16:32:26;102102.25;;;7.34;100.00
32330;BME280;18807;52.434;13.238;2023-02-15T16:40:02;102101.22;;;7.13;100.00
32330;BME280;18807;52.434;13.238;2023-02-15T16:47:40;102103.47;;;6.88;100.00
32330;BME280;18807;52.434;13.238;2023-02-15T16:55:21;102099.63;;;6.66;100.00
32330;BME280;18807;52.434;13.238;2023-02-15T17:02:59;102103.81;;;6.45;100.00
32330;BME280;18807;52.434;13.238;2023-02-15T17:10:37;102101.00;;;6.26;100.00
32330;BME280;18807;52.434;13.238;2023-02-15T17:18:17;102090.25;;;6.06;100.00
32330;BME280;18807;52.434;13.238;2023-02-15T17:25:53;102092.06;;;5.91;100.00
32330;BME280;18807;52.434;13.238;2023-02-15T17:33:36;102095.72;;;5.79;100.00
32330;BME280;18807;52.434;13.238;2023-02-15T17:41:13;102092.81;;;5.58;100.00
32330;BME280;18807;52.434;13.238;2023-02-15T17:48:48;102089.28;;;5.43;100.00
32330;BME280;18807;52.434;13.238;2023-02-15T17:56:24;102107.97;;;5.30;100.00
32330;BME280;18807;52.434;13.238;2023-02-15T18:03:58;102108.19;;;5.19;100.00
32330;BME280;18807;52.434;13.238;2023-02-15T18:11:51;102093.97;;;5.02;100.00
32330;BME280;18807;52.434;13.238;2023-02-15T18:19:25;102094.69;;;4.85;100.00
32330;BME280;18807;52.434;13.238;2023-02-15T18:27:00;102097.34;;;4.71;100.00
32330;BME280;18807;52.434;13.238;2023-02-15T18:34:37;102090.63;;;4.61;100.00
32330;BME280;18807;52.434;13.238;2023-02-15T18:42:19;102083.50;;;4.46;100.00
32330;BME280;18807;52.434;13.238;2023-02-15T18:49:54;102088.78;;;4.31;100.00
32330;BME280;18807;52.434;13.238;2023-02-15T18:57:29;102081.09;;;4.21;100.00
32330;BME280;18807;52.434;13.238;2023-02-15T19:05:05;102079.25;;;4.05;100.00
32330;BME280;18807;52.434;13.238;2023-02-15T19:12:40;102071.56;;;3.95;100.00
32330;BME280;18807;52.434;13.238;2023-02-15T19:20:16;102055.13;;;3.86;100.00
32330;BME280;18807;52.434;13.238;2023-02-15T19:27:53;102058.72;;;3.74;100.00
32330;BME280;18807;52.434;13.238;2023-02-15T19:35:29;102036.03;;;3.63;100.00
32330;BME280;18807;52.434;13.238;2023-02-15T19:43:09;102028.56;;;3.56;100.00
32330;BME280;18807;52.434;13.238;2023-02-15T19:50:48;102027.78;;;3.44;100.00
32330;BME280;18807;52.434;13.238;2023-02-15T19:58:23;102012.13;;;3.34;100.00
32330;BME280;18807;52.434;13.238;2023-02-15T20:05:57;102009.94;;;3.27;100.00
32330;BME280;18807;52.434;13.238;2023-02-15T20:13:32;102001.22;;;3.15;100.00
32330;BME280;18807;52.434;13.238;2023-02-15T20:21:10;101998.19;;;3.09;100.00
32330;BME280;18807;52.434;13.238;2023-02-15T20:28:49;101998.41;;;2.99;100.00
32330;BME280;18807;52.434;13.238;2023-02-15T20:36:24;101995.19;;;2.90;100.00
32330;BME280;18807;52.434;13.238;2023-02-15T20:43:59;101995.72;;;2.84;100.00
32330;BME280;18807;52.434;13.238;2023-02-15T20:51:33;101998.56;;;2.74;100.00
32330;BME280;18807;52.434;13.238;2023-02-15T20:59:18;102014.09;;;2.70;100.00
32330;BME280;18807;52.434;13.238;2023-02-15T21:06:53;102008.91;;;2.58;100.00
32330;BME280;18807;52.434;13.238;2023-02-15T21:14:28;102000.63;;;2.52;100.00
32330;BME280;18807;52.434;13.238;2023-02-15T21:22:02;101988.44;;;2.41;100.00
32330;BME280;18807;52.434;13.238;2023-02-15T21:29:37;101999.28;;;2.33;100.00
32330;BME280;18807;52.434;13.238;2023-02-15T21:37:26;101999.66;;;2.26;100.00
32330;BME280;18807;52.434;13.238;2023-02-15T21:45:12;102007.84;;;2.17;100.00
32330;BME280;18807;52.434;13.238;2023-02-15T21:53:06;102013.00;;;2.02;100.00
32330;BME280;18807;52.434;13.238;2023-02-15T22:00:42;102004.78;;;1.98;100.00
32330;BME280;18807;52.434;13.238;2023-02-15T22:08:16;101995.63;;;1.93;100.00
32330;BME280;18807;52.434;13.238;2023-02-15T22:15:52;101986.41;;;1.86;100.00
32330;BME280;18807;52.434;13.238;2023-02-15T22:23:26;101987.69;;;1.80;100.00
32330;BME280;18807;52.434;13.238;2023-02-15T22:31:02;101993.47;;;1.74;100.00
32330;BME280;18807;52.434;13.238;2023-02-15T22:38:38;101991.34;;;1.69;100.00
32330;BME280;18807;52.434;13.238;2023-02-15T22:46:16;101973.25;;;1.62;100.00
32330;BME280;18807;52.434;13.238;2023-02-15T22:53:51;101969.19;;;1.54;100.00
32330;BME280;18807;52.434;13.238;2023-02-15T23:01:29;101971.50;;;1.49;100.00
32330;BME280;18807;52.434;13.238;2023-02-15T23:09:04;101973.94;;;1.46;100.00
32330;BME280;18807;52.434;13.238;2023-02-15T23:16:39;101973.59;;;1.42;100.00
32330;BME280;18807;52.434;13.238;2023-02-15T23:24:17;101973.38;;;1.39;100.00
32330;BME280;18807;52.434;13.238;2023-02-15T23:31:53;101980.97;;;1.34;100.00
32330;BME280;18807;52.434;13.238;2023-02-15T23:39:28;101983.25;;;1.30;100.00
32330;BME280;18807;52.434;13.238;2023-02-15T23:47:24;101982.94;;;1.25;100.00
32330;BME280;18807;52.434;13.238;2023-02-15T23:55:14;101987.88;;;1.21;100.00
